EGLL/LHR METAR and TAF weather

Enter ICAO airport designator
Station Type Date Time Source
EGLL METAR 2019/06/18 16:50 UTC NOAA

EGLL 181650Z AUTO 36004KT 320V020 9999 //////TCU 17/15 Q1012 NOSIG


Station Type Date Time Source
EGLL Decoded METAR 2019/06/18 16:50 UTC NOAA

London / Heathrow Airport, United Kingdom (EGLL) 51-29N 000-27W 0M
Jun 18, 2019 - 12:50 PM EDT / 2019.06.18 1650 UTC
Wind: from the N (360 degrees) at 5 MPH (4 KT) (direction variable):0
Visibility: greater than 7 mile(s):0
Weather: Towering cumulus clouds observed
Temperature: 62 F (17 C)
Dew Point: 59 F (15 C)
Relative Humidity: 88%
Pressure (altimeter): 29.88 in. Hg (1012 hPa)
ob: EGLL 181650Z AUTO 36004KT 320V020 9999 //////TCU 17/15 Q1012 NOSIG
cycle: 17

Station Type Date Time Source
EGLL TAF 2019/06/18 18:09 UTC NOAA

TAF EGLL 181701Z 1818/1924 06005KT 9999 SCT045
TEMPO 1818/1916 6000 RA SHRA PROB30
TEMPO 1818/1824 BKN010 PROB30
TEMPO 1900/1911 3000 +SHRA TSRA BKN009 BKN045CB PROB30
TEMPO 1911/1916 BKN012
BECMG 1912/1915 28010KT

Example: see airport list